Terminal Aerodrome Forecast
Issued by NWS Newport/Morehead City, NC

Home | Current Version | Previous Version | Graphics & Text | Print | Product List | Glossary On
Versions: 1 2 3 4 5 6 7 8 9 10 11 12 13
727
FTUS42 KMHX 240534
TAFEWN
TAF
KEWN 240534Z 2406/2506 VRB03KT P6SM SKC
     FM241600 18008KT P6SM SCT045
     FM242100 19008KT P6SM SKC
     FM250400 VRB04KT P6SM SKC=

USA.gov is the U.S. government's official web portal to all federal, state and local government web resources and services.